createdAt,value
2022-10-26T00:01:36.339Z,11.69
2022-10-26T00:04:06.443Z,11.67
2022-10-26T00:06:34.878Z,11.67
2022-10-26T00:09:05.110Z,11.69
2022-10-26T00:11:34.697Z,11.71
2022-10-26T00:14:03.587Z,11.68
2022-10-26T00:16:32.050Z,11.66
2022-10-26T00:19:00.457Z,11.70
2022-10-26T00:21:29.625Z,11.69
2022-10-26T00:24:00.417Z,11.70
2022-10-26T00:26:30.217Z,11.67
2022-10-26T00:28:58.709Z,11.65
2022-10-26T00:31:27.642Z,11.61
2022-10-26T00:33:58.211Z,11.63
2022-10-26T00:36:27.688Z,11.66
2022-10-26T00:38:58.948Z,11.68
2022-10-26T00:41:32.153Z,11.70
2022-10-26T00:44:01.184Z,11.72
2022-10-26T00:46:36.498Z,11.71
2022-10-26T00:49:14.631Z,11.70
2022-10-26T00:51:50.254Z,11.70
2022-10-26T00:54:22.111Z,11.70
2022-10-26T00:56:56.878Z,11.71
2022-10-26T00:59:25.880Z,11.69
2022-10-26T01:01:55.290Z,11.68
2022-10-26T01:04:24.468Z,11.70
2022-10-26T01:06:55.418Z,11.72
2022-10-26T01:09:26.384Z,11.72
2022-10-26T01:11:56.702Z,11.75
2022-10-26T01:14:28.452Z,11.75
2022-10-26T01:17:11.585Z,11.77
2022-10-26T01:20:28.055Z,11.77
2022-10-26T01:23:09.044Z,11.77
2022-10-26T01:26:13.849Z,11.79
2022-10-26T01:29:25.902Z,11.77
2022-10-26T01:32:05.969Z,11.79
2022-10-26T01:34:40.882Z,11.79
2022-10-26T01:37:15.181Z,11.80
2022-10-26T01:39:50.774Z,11.82
2022-10-26T01:42:24.814Z,11.83
2022-10-26T01:45:02.266Z,11.83
2022-10-26T01:47:35.513Z,11.79
2022-10-26T01:50:06.514Z,11.80
2022-10-26T01:52:36.570Z,11.77
2022-10-26T01:55:29.500Z,11.74
2022-10-26T01:58:12.462Z,11.77
2022-10-26T02:01:00.161Z,11.80
2022-10-26T02:03:42.955Z,11.80
2022-10-26T02:06:20.454Z,11.81
2022-10-26T02:09:08.299Z,11.83
2022-10-26T02:11:43.952Z,11.84
2022-10-26T02:14:24.696Z,11.77
2022-10-26T02:16:58.914Z,11.76
2022-10-26T02:19:38.452Z,11.78
2022-10-26T02:22:16.802Z,11.80
2022-10-26T02:24:47.770Z,11.80
2022-10-26T02:27:24.784Z,11.79
2022-10-26T02:29:57.019Z,11.76
2022-10-26T02:32:31.747Z,11.73
2022-10-26T02:35:05.261Z,11.71
2022-10-26T02:37:37.735Z,11.74
2022-10-26T02:40:13.986Z,11.75
2022-10-26T02:42:46.919Z,11.78
2022-10-26T02:45:22.591Z,11.77
2022-10-26T02:47:52.365Z,11.78
2022-10-26T02:50:32.497Z,11.79
2022-10-26T02:53:12.079Z,11.79
2022-10-26T02:55:50.801Z,11.79
2022-10-26T02:58:26.918Z,11.82
2022-10-26T03:00:55.803Z,11.80
2022-10-26T03:03:25.728Z,11.80
2022-10-26T03:05:56.076Z,11.78
2022-10-26T03:08:26.180Z,11.80
2022-10-26T03:10:54.623Z,11.81
2022-10-26T03:13:23.098Z,11.80
2022-10-26T03:15:51.940Z,11.79
2022-10-26T03:18:20.836Z,11.79
2022-10-26T03:20:49.405Z,11.81
2022-10-26T03:23:19.784Z,11.82
2022-10-26T03:25:49.363Z,11.82
2022-10-26T03:28:19.092Z,11.83
2022-10-26T03:30:48.671Z,11.84
2022-10-26T03:33:18.059Z,11.86
2022-10-26T03:35:46.574Z,11.85
2022-10-26T03:38:16.044Z,11.86
2022-10-26T03:40:48.601Z,11.84
2022-10-26T03:43:17.079Z,11.86
2022-10-26T03:45:45.683Z,11.85
2022-10-26T03:48:15.164Z,11.86
2022-10-26T03:50:44.488Z,11.85
2022-10-26T03:53:13.469Z,11.87
2022-10-26T03:55:47.145Z,11.85
2022-10-26T03:58:17.256Z,11.86
2022-10-26T04:00:45.787Z,11.84
2022-10-26T04:03:14.974Z,11.82
2022-10-26T04:05:44.561Z,11.83
2022-10-26T04:08:13.938Z,11.79
2022-10-26T04:10:43.132Z,11.78
2022-10-26T04:13:13.401Z,11.76
2022-10-26T04:15:41.958Z,11.76
2022-10-26T04:18:13.557Z,11.73
2022-10-26T04:20:43.174Z,11.69
2022-10-26T04:23:15.411Z,11.69
2022-10-26T04:25:45.006Z,11.66
2022-10-26T04:28:15.992Z,11.60
2022-10-26T04:30:44.779Z,11.56
2022-10-26T04:33:14.045Z,11.53
2022-10-26T04:35:43.983Z,11.48
2022-10-26T04:38:13.782Z,11.44
2022-10-26T04:40:42.576Z,11.37
2022-10-26T04:43:12.836Z,11.34
2022-10-26T04:45:42.882Z,11.32
2022-10-26T04:48:14.560Z,11.34
2022-10-26T04:50:44.178Z,11.29
2022-10-26T04:53:13.751Z,11.28
2022-10-26T04:55:42.444Z,11.31
2022-10-26T04:58:11.085Z,11.31
2022-10-26T05:00:41.266Z,11.32
2022-10-26T05:03:12.103Z,11.33
2022-10-26T05:05:41.623Z,11.35
2022-10-26T05:08:10.727Z,11.36
2022-10-26T05:10:39.403Z,11.38
2022-10-26T05:13:08.180Z,11.36
2022-10-26T05:15:38.005Z,11.36
2022-10-26T05:18:09.162Z,11.37
2022-10-26T05:20:38.884Z,11.38
2022-10-26T05:23:11.673Z,11.39
2022-10-26T05:25:40.854Z,11.41
2022-10-26T05:28:14.377Z,11.43
2022-10-26T05:30:45.361Z,11.45
2022-10-26T05:33:16.910Z,11.43
2022-10-26T05:35:45.626Z,11.40
2022-10-26T05:38:17.967Z,11.41
2022-10-26T05:40:49.952Z,11.43
2022-10-26T05:43:19.456Z,11.42
2022-10-26T05:45:49.689Z,11.41
2022-10-26T05:48:19.845Z,11.40
2022-10-26T05:50:48.860Z,11.41
2022-10-26T05:53:17.767Z,11.42
2022-10-26T05:55:48.518Z,11.43
2022-10-26T05:58:18.400Z,11.44
2022-10-26T06:01:15.048Z,11.43
2022-10-26T06:04:11.209Z,11.42
2022-10-26T06:06:47.293Z,11.45
2022-10-26T06:09:19.105Z,11.46
2022-10-26T06:14:20.422Z,11.49
2022-10-26T06:17:10.520Z,11.50
2022-10-26T06:19:58.513Z,11.45
2022-10-26T06:22:46.016Z,11.48
2022-10-26T06:25:29.897Z,11.50
2022-10-26T06:28:17.960Z,11.50
2022-10-26T06:30:46.780Z,11.49
2022-10-26T06:33:28.542Z,11.52
2022-10-26T06:36:18.484Z,11.50
2022-10-26T06:38:49.893Z,11.49
2022-10-26T06:41:20.372Z,11.51
2022-10-26T06:43:51.862Z,11.52
2022-10-26T06:46:39.155Z,11.52
2022-10-26T06:49:18.780Z,11.55
2022-10-26T06:52:00.126Z,11.55
2022-10-26T06:54:49.574Z,11.54
2022-10-26T06:57:20.870Z,11.56
2022-10-26T06:59:54.804Z,11.56
2022-10-26T07:02:25.319Z,11.53
2022-10-26T07:04:54.223Z,11.53
2022-10-26T07:07:28.069Z,11.54
2022-10-26T07:09:58.248Z,11.56
2022-10-26T07:12:30.829Z,11.58
2022-10-26T07:15:02.161Z,11.56
2022-10-26T07:17:31.693Z,11.53
2022-10-26T07:20:00.225Z,11.56
2022-10-26T07:22:30.144Z,11.55
2022-10-26T07:25:02.069Z,11.54
2022-10-26T07:27:31.727Z,11.55
2022-10-26T07:30:00.172Z,11.55
2022-10-26T07:32:29.018Z,11.56
2022-10-26T07:34:58.079Z,11.57
2022-10-26T07:37:26.797Z,11.54
2022-10-26T07:39:56.727Z,11.54
2022-10-26T07:42:26.252Z,11.55
2022-10-26T07:44:55.787Z,11.57
2022-10-26T07:47:24.932Z,11.58
2022-10-26T07:49:54.135Z,11.57
2022-10-26T07:52:22.727Z,11.58
2022-10-26T07:54:51.187Z,11.61
2022-10-26T07:57:21.780Z,11.61
2022-10-26T07:59:51.452Z,11.63
2022-10-26T08:02:20.037Z,11.65
2022-10-26T08:04:48.616Z,11.67
2022-10-26T08:07:17.239Z,11.70
2022-10-26T08:09:46.357Z,11.73
2022-10-26T08:12:16.636Z,11.77
2022-10-26T08:14:47.170Z,11.78
2022-10-26T08:17:15.688Z,11.81
2022-10-26T08:19:44.229Z,11.83
2022-10-26T08:24:47.075Z,11.85
2022-10-26T08:27:16.636Z,11.89
2022-10-26T08:29:46.899Z,11.94
2022-10-26T08:32:15.498Z,12.01
2022-10-26T08:34:44.013Z,12.08
2022-10-26T08:37:12.536Z,12.16
2022-10-26T08:39:41.032Z,12.21
2022-10-26T08:42:24.028Z,12.29
2022-10-26T08:45:02.535Z,12.34
2022-10-26T08:47:37.258Z,12.39
2022-10-26T08:50:14.057Z,12.47
2022-10-26T08:52:52.514Z,12.53
2022-10-26T08:55:30.679Z,12.68
2022-10-26T08:58:06.674Z,12.77
2022-10-26T09:00:37.126Z,12.86
2022-10-26T09:03:16.326Z,12.96
2022-10-26T09:06:03.422Z,13.06
2022-10-26T09:08:42.973Z,13.19
2022-10-26T09:11:27.733Z,13.33
2022-10-26T09:14:09.954Z,13.45
2022-10-26T09:16:57.283Z,13.54
2022-10-26T09:20:01.906Z,13.68
2022-10-26T09:22:47.061Z,13.77
2022-10-26T09:25:22.325Z,13.84
2022-10-26T09:27:56.833Z,13.90
2022-10-26T09:30:26.127Z,13.94
2022-10-26T09:33:01.083Z,14.03
2022-10-26T09:35:45.519Z,14.08
2022-10-26T09:38:21.962Z,14.19
2022-10-26T09:41:00.033Z,14.32
2022-10-26T09:43:37.233Z,14.42
2022-10-26T09:46:06.598Z,14.50
2022-10-26T09:48:43.944Z,14.55
2022-10-26T09:51:12.957Z,14.64
2022-10-26T09:53:41.496Z,14.74
2022-10-26T09:56:13.378Z,14.80
2022-10-26T09:58:49.956Z,14.87
2022-10-26T10:01:29.877Z,14.90
2022-10-26T10:04:21.210Z,14.97
2022-10-26T10:06:52.201Z,15.02
2022-10-26T10:09:23.242Z,15.06
2022-10-26T10:11:56.738Z,15.13
2022-10-26T10:14:28.178Z,15.18
2022-10-26T10:16:59.780Z,15.24
2022-10-26T10:19:32.436Z,15.27
2022-10-26T10:22:10.797Z,15.32
2022-10-26T10:24:42.411Z,15.35
2022-10-26T10:27:20.166Z,15.41
2022-10-26T10:29:51.017Z,15.45
2022-10-26T10:32:22.131Z,15.48
2022-10-26T10:34:54.922Z,15.50
2022-10-26T10:37:29.354Z,15.54
2022-10-26T10:40:00.546Z,15.57
2022-10-26T10:42:33.522Z,15.62
2022-10-26T10:45:04.788Z,15.66
2022-10-26T10:47:36.152Z,15.69
2022-10-26T10:50:18.523Z,15.71
2022-10-26T10:52:48.342Z,15.74
2022-10-26T10:55:24.032Z,15.79
2022-10-26T10:58:10.029Z,15.83
2022-10-26T11:00:39.445Z,15.87
2022-10-26T11:03:34.945Z,15.88
2022-10-26T11:06:16.514Z,15.92
2022-10-26T11:08:54.552Z,15.94
2022-10-26T11:11:32.379Z,16.00
2022-10-26T11:14:07.692Z,16.06
2022-10-26T11:16:44.589Z,16.10
2022-10-26T11:19:28.197Z,16.13
2022-10-26T11:21:58.731Z,16.15
2022-10-26T11:24:35.231Z,16.20
2022-10-26T11:27:13.326Z,16.25
2022-10-26T11:29:51.408Z,16.30
2022-10-26T11:32:25.196Z,16.34
2022-10-26T11:35:02.813Z,16.43
2022-10-26T11:37:46.759Z,16.48
2022-10-26T11:40:29.755Z,16.49
2022-10-26T11:43:15.241Z,16.50
2022-10-26T11:45:51.899Z,16.54
2022-10-26T11:48:25.949Z,16.63
2022-10-26T11:50:59.036Z,16.71
2022-10-26T11:53:37.049Z,16.75
2022-10-26T11:56:15.280Z,16.79
2022-10-26T11:58:47.024Z,16.84
2022-10-26T12:01:18.603Z,16.84
2022-10-26T12:03:53.664Z,16.87
2022-10-26T12:06:29.439Z,16.88
2022-10-26T12:09:08.914Z,16.95
2022-10-26T12:11:47.358Z,16.96
2022-10-26T12:14:25.140Z,17.01
2022-10-26T12:17:05.110Z,17.04
2022-10-26T12:19:44.479Z,17.05
2022-10-26T12:22:17.563Z,17.08
2022-10-26T12:25:09.000Z,17.14
2022-10-26T12:27:55.210Z,17.18
2022-10-26T12:30:31.071Z,17.23
2022-10-26T12:33:02.014Z,17.27
2022-10-26T12:35:43.269Z,17.31
2022-10-26T12:38:59.493Z,17.36
2022-10-26T12:41:30.552Z,17.39
2022-10-26T12:44:39.016Z,17.43
2022-10-26T12:47:08.923Z,17.45
2022-10-26T12:50:02.511Z,17.48
2022-10-26T12:52:53.677Z,17.54
2022-10-26T12:56:10.091Z,17.68
2022-10-26T12:59:20.820Z,17.73
2022-10-26T13:02:38.804Z,17.81
2022-10-26T13:06:18.505Z,17.87
2022-10-26T13:08:56.221Z,17.97
2022-10-26T13:11:33.684Z,18.05
2022-10-26T13:14:06.869Z,18.08
2022-10-26T13:16:36.731Z,18.11
2022-10-26T13:19:06.907Z,18.13
2022-10-26T13:21:52.617Z,18.17
2022-10-26T13:24:27.287Z,18.24
2022-10-26T13:27:40.690Z,18.28
2022-10-26T13:30:46.809Z,18.31
2022-10-26T13:33:35.002Z,18.32
2022-10-26T13:36:20.141Z,18.32
2022-10-26T13:38:50.171Z,18.35
2022-10-26T13:41:33.587Z,18.47
2022-10-26T13:44:08.270Z,18.48
2022-10-26T13:46:43.070Z,18.50
2022-10-26T13:49:36.218Z,18.66
2022-10-26T13:52:17.256Z,18.68
2022-10-26T13:54:52.744Z,18.69
2022-10-26T13:57:29.958Z,18.76
2022-10-26T14:00:04.148Z,18.83
2022-10-26T14:02:34.765Z,18.88
2022-10-26T14:05:06.480Z,18.91
2022-10-26T14:07:43.829Z,19.02
2022-10-26T14:10:29.099Z,19.14
2022-10-26T14:12:59.557Z,19.31
2022-10-26T14:15:32.693Z,19.48
2022-10-26T14:18:03.957Z,19.55
2022-10-26T14:20:34.092Z,19.56
2022-10-26T14:23:04.030Z,19.50
2022-10-26T14:25:42.822Z,19.49
2022-10-26T14:28:29.685Z,19.47
2022-10-26T14:31:19.439Z,19.48
2022-10-26T14:33:49.084Z,19.40
2022-10-26T14:36:22.523Z,19.39
2022-10-26T14:39:00.171Z,19.39
2022-10-26T14:41:30.785Z,19.40
2022-10-26T14:44:01.546Z,19.40
2022-10-26T14:46:36.643Z,19.39
2022-10-26T14:49:06.280Z,19.40
2022-10-26T14:51:38.163Z,19.38
2022-10-26T14:54:24.274Z,19.37
2022-10-26T14:56:54.209Z,19.32
2022-10-26T14:59:27.632Z,19.30
2022-10-26T15:01:58.642Z,19.22
2022-10-26T15:04:33.570Z,19.15
2022-10-26T15:07:19.146Z,19.13
2022-10-26T15:09:58.519Z,19.08
2022-10-26T15:12:36.175Z,18.98
2022-10-26T15:15:24.199Z,18.84
2022-10-26T15:17:56.685Z,18.75
2022-10-26T15:20:30.096Z,18.68
2022-10-26T15:23:01.886Z,18.57
2022-10-26T15:25:36.219Z,18.54
2022-10-26T15:28:13.070Z,18.45
2022-10-26T15:31:01.083Z,18.39
2022-10-26T15:33:30.725Z,18.26
2022-10-26T15:36:26.117Z,18.13
2022-10-26T15:38:55.771Z,18.01
2022-10-26T15:41:30.985Z,17.94
2022-10-26T15:44:06.011Z,17.83
2022-10-26T15:46:39.888Z,17.69
2022-10-26T15:49:17.501Z,17.68
2022-10-26T15:51:48.019Z,17.59
2022-10-26T15:54:18.087Z,17.62
2022-10-26T15:56:48.645Z,17.60
2022-10-26T15:59:19.865Z,17.58
2022-10-26T16:01:48.597Z,17.51
2022-10-26T16:04:17.886Z,17.48
2022-10-26T16:06:47.354Z,17.42
2022-10-26T16:09:20.303Z,17.35
2022-10-26T16:11:51.051Z,17.27
2022-10-26T16:14:19.735Z,17.22
2022-10-26T16:16:48.973Z,17.13
2022-10-26T16:19:30.455Z,17.08
2022-10-26T16:22:00.082Z,17.03
2022-10-26T16:24:30.101Z,16.99
2022-10-26T16:27:00.054Z,16.92
2022-10-26T16:29:29.248Z,16.86
2022-10-26T16:31:58.065Z,16.82
2022-10-26T16:34:26.576Z,16.77
2022-10-26T16:36:55.280Z,16.66
2022-10-26T16:39:23.756Z,16.55
2022-10-26T16:41:52.478Z,16.48
2022-10-26T16:44:22.348Z,16.44
2022-10-26T16:46:51.162Z,16.36
2022-10-26T16:49:19.610Z,16.30
2022-10-26T16:51:48.065Z,16.26
2022-10-26T16:54:17.323Z,16.25
2022-10-26T16:56:45.778Z,16.22
2022-10-26T16:59:14.416Z,16.16
2022-10-26T17:01:44.435Z,16.11
2022-10-26T17:04:13.366Z,16.04
2022-10-26T17:06:41.906Z,16.01
2022-10-26T17:09:10.442Z,15.91
2022-10-26T17:11:39.319Z,15.91
2022-10-26T17:14:07.756Z,15.83
2022-10-26T17:16:36.167Z,15.77
2022-10-26T17:19:06.027Z,15.68
2022-10-26T17:21:36.618Z,15.63
2022-10-26T17:24:06.176Z,15.59
2022-10-26T17:26:34.808Z,15.57
2022-10-26T17:29:03.337Z,15.51
2022-10-26T17:31:32.198Z,15.46
2022-10-26T17:34:01.594Z,15.40
2022-10-26T17:36:31.771Z,15.37
2022-10-26T17:39:00.936Z,15.32
2022-10-26T17:41:29.598Z,15.29
2022-10-26T17:43:58.431Z,15.24
2022-10-26T17:46:28.733Z,15.17
2022-10-26T17:48:58.654Z,15.12
2022-10-26T17:51:29.092Z,15.06
2022-10-26T17:54:00.404Z,15.02
2022-10-26T17:56:31.688Z,14.96
2022-10-26T17:59:03.950Z,14.88
2022-10-26T18:01:33.492Z,14.86
2022-10-26T18:04:05.068Z,14.85
2022-10-26T18:06:33.846Z,14.67
2022-10-26T18:09:04.822Z,14.54
2022-10-26T18:11:33.517Z,14.53
2022-10-26T18:14:02.688Z,14.55
2022-10-26T18:16:31.985Z,14.54
2022-10-26T18:19:03.653Z,14.48
2022-10-26T18:21:37.915Z,14.44
2022-10-26T18:24:10.284Z,14.44
2022-10-26T18:26:39.436Z,14.42
2022-10-26T18:29:08.968Z,14.39
2022-10-26T18:31:37.719Z,14.39
2022-10-26T18:34:08.117Z,14.36
2022-10-26T18:39:09.278Z,14.23
2022-10-26T18:41:37.884Z,14.18
2022-10-26T18:44:07.093Z,14.17
2022-10-26T18:46:43.019Z,14.15
2022-10-26T18:49:14.074Z,14.09
2022-10-26T18:51:44.186Z,14.01
2022-10-26T18:54:14.922Z,13.99
2022-10-26T18:56:44.110Z,13.97
2022-10-26T18:59:13.162Z,13.97
2022-10-26T19:01:42.480Z,13.94
2022-10-26T19:04:13.382Z,13.94
2022-10-26T19:06:47.839Z,13.86
2022-10-26T19:09:19.845Z,13.81
2022-10-26T19:11:48.489Z,13.83
2022-10-26T19:14:17.129Z,13.78
2022-10-26T19:16:47.529Z,13.70
2022-10-26T19:19:17.983Z,13.60
2022-10-26T19:21:49.281Z,13.61
2022-10-26T19:24:24.270Z,13.58
2022-10-26T19:26:54.562Z,13.55
2022-10-26T19:29:24.116Z,13.56
2022-10-26T19:31:54.391Z,13.55
2022-10-26T19:34:24.218Z,13.48
2022-10-26T19:36:52.810Z,13.43
2022-10-26T19:39:23.402Z,13.43
2022-10-26T19:41:53.078Z,13.39
2022-10-26T19:44:25.485Z,13.26
2022-10-26T19:46:55.206Z,13.28
2022-10-26T19:49:25.120Z,13.30
2022-10-26T19:51:54.820Z,13.27
2022-10-26T19:54:25.462Z,13.20
2022-10-26T19:56:54.386Z,13.18
2022-10-26T19:59:23.365Z,13.17
2022-10-26T20:01:52.369Z,13.10
2022-10-26T20:04:22.208Z,13.06
2022-10-26T20:06:50.833Z,13.07
2022-10-26T20:09:19.498Z,13.08
2022-10-26T20:11:49.911Z,13.05
2022-10-26T20:14:18.588Z,13.01
2022-10-26T20:16:47.684Z,12.98
2022-10-26T20:19:16.205Z,12.95
2022-10-26T20:21:45.455Z,12.97
2022-10-26T20:24:14.038Z,12.91
2022-10-26T20:26:42.638Z,12.90
2022-10-26T20:29:13.384Z,12.86
2022-10-26T20:31:42.076Z,12.84
2022-10-26T20:34:11.284Z,12.86
2022-10-26T20:36:40.640Z,12.81
2022-10-26T20:39:10.218Z,12.71
2022-10-26T20:41:46.351Z,12.71
2022-10-26T20:44:26.898Z,12.70
2022-10-26T20:46:57.108Z,12.68
2022-10-26T20:49:27.285Z,12.61
2022-10-26T20:52:20.872Z,12.55
2022-10-26T20:55:01.430Z,12.53
2022-10-26T20:57:34.162Z,12.48
2022-10-26T21:00:09.534Z,12.51
2022-10-26T21:02:38.989Z,12.46
2022-10-26T21:05:09.162Z,12.41
2022-10-26T21:07:38.729Z,12.39
2022-10-26T21:10:09.875Z,12.34
2022-10-26T21:12:39.205Z,12.35
2022-10-26T21:15:11.985Z,12.36
2022-10-26T21:17:42.602Z,12.30
2022-10-26T21:20:12.934Z,12.27
2022-10-26T21:22:42.238Z,12.19
2022-10-26T21:25:12.194Z,12.18
2022-10-26T21:27:43.088Z,12.19
2022-10-26T21:30:16.553Z,12.17
2022-10-26T21:32:45.781Z,12.18
2022-10-26T21:35:14.906Z,12.17
2022-10-26T21:37:44.554Z,12.07
2022-10-26T21:40:15.797Z,12.05
2022-10-26T21:42:51.188Z,12.03
2022-10-26T21:45:22.484Z,11.95
2022-10-26T21:47:54.528Z,11.86
2022-10-26T21:50:24.162Z,11.89
2022-10-26T21:52:55.737Z,11.93
2022-10-26T21:55:24.991Z,11.87
2022-10-26T21:57:55.948Z,11.79
2022-10-26T22:00:27.384Z,11.81
2022-10-26T22:02:57.101Z,11.83
2022-10-26T22:05:26.340Z,11.80
2022-10-26T22:07:56.066Z,11.79
2022-10-26T22:10:25.462Z,11.76
2022-10-26T22:12:54.484Z,11.75
2022-10-26T22:15:24.552Z,11.73
2022-10-26T22:17:56.007Z,11.66
2022-10-26T22:20:25.540Z,11.54
2022-10-26T22:22:55.278Z,11.57
2022-10-26T22:25:24.667Z,11.59
2022-10-26T22:27:54.938Z,11.60
2022-10-26T22:30:25.089Z,11.58
2022-10-26T22:32:55.575Z,11.61
2022-10-26T22:35:30.063Z,11.62
2022-10-26T22:37:59.510Z,11.63
2022-10-26T22:40:29.102Z,11.59
2022-10-26T22:42:58.324Z,11.52
2022-10-26T22:45:28.590Z,11.47
2022-10-26T22:47:59.170Z,11.50
2022-10-26T22:50:29.464Z,11.48
2022-10-26T22:52:59.639Z,11.46
2022-10-26T22:55:29.783Z,11.45
2022-10-26T22:57:59.696Z,11.40
2022-10-26T23:00:29.836Z,11.40
2022-10-26T23:03:01.502Z,11.33
2022-10-26T23:05:30.810Z,11.30
2022-10-26T23:08:00.557Z,11.33
2022-10-26T23:10:30.318Z,11.33
2022-10-26T23:12:59.430Z,11.28
2022-10-26T23:15:31.947Z,11.29
2022-10-26T23:18:02.395Z,11.32
2022-10-26T23:20:34.583Z,11.31
2022-10-26T23:23:04.743Z,11.24
2022-10-26T23:25:34.928Z,11.19
2022-10-26T23:28:04.195Z,11.16
2022-10-26T23:30:33.001Z,11.14
2022-10-26T23:33:03.846Z,11.15
2022-10-26T23:35:33.571Z,11.11
2022-10-26T23:38:02.851Z,11.02
2022-10-26T23:40:32.271Z,11.08
2022-10-26T23:43:01.353Z,11.05
2022-10-26T23:45:30.269Z,11.06
2022-10-26T23:48:00.152Z,11.07
2022-10-26T23:50:31.276Z,11.00
2022-10-26T23:53:00.788Z,10.95
2022-10-26T23:55:31.372Z,10.97
2022-10-26T23:58:00.284Z,10.94
